Time;durP1;ratioP1;P1;durP2;ratioP2;P2;SDS_P1;SDS_P2;PMS_P1;PMS_P2;Temp;Humidity;BMP_temperature;BMP_pressure;BME280_temperature;BME280_humidity;BME280_pressure;Samples;Min_cycle;Max_cycle;Signal;HPM_P1;HPM_P2
2024/04/23 00:01:21;;;;;;;5.40;2.80;;;;;;;11.42;60.76;101020.42;107465;1259;59344;-72
2024/04/23 00:03:49;;;;;;;10.90;6.30;;;;;;;11.42;60.79;101027.84;106059;1257;63616;-73
2024/04/23 00:06:16;;;;;;;8.30;5.60;;;;;;;11.42;60.94;101028.33;106084;1257;61384;-71
2024/04/23 00:08:44;;;;;;;13.10;2.20;;;;;;;11.49;60.75;101028.91;105967;1259;63873;-72
2024/04/23 00:11:11;;;;;;;11.50;5.70;;;;;;;11.54;60.47;101028.48;105765;1262;61243;-73
2024/04/23 00:13:39;;;;;;;11.10;6.40;;;;;;;11.58;60.51;101030.52;106044;1258;61253;-71
2024/04/23 00:16:06;;;;;;;7.80;5.50;;;;;;;11.59;60.51;101031.31;106072;1261;66149;-71
2024/04/23 00:18:34;;;;;;;9.30;5.80;;;;;;;11.58;60.68;101030.51;106013;1258;61146;-71
2024/04/23 00:21:02;;;;;;;10.50;5.90;;;;;;;11.60;60.72;101026.69;105921;1258;64184;-71
2024/04/23 00:23:29;;;;;;;13.30;3.60;;;;;;;11.60;60.79;101024.89;106079;1257;61163;-71
2024/04/23 00:25:57;;;;;;;10.10;6.50;;;;;;;11.59;60.71;101025.70;105427;1257;61284;-57
2024/04/23 00:28:24;;;;;;;10.10;6.50;;;;;;;11.56;60.65;101027.00;104812;1258;64524;-70
2024/04/23 00:30:52;;;;;;;8.00;2.80;;;;;;;11.55;60.51;101025.42;105920;1259;61263;-68
2024/04/23 00:33:19;;;;;;;10.10;6.60;;;;;;;11.60;60.47;101028.27;104814;1257;63763;-70
2024/04/23 00:35:47;;;;;;;6.40;2.60;;;;;;;11.61;60.50;101028.86;104815;1261;62024;-60
2024/04/23 00:38:14;;;;;;;12.20;7.60;;;;;;;11.63;60.67;101029.93;104906;1261;61177;-68
2024/04/23 00:40:42;;;;;;;10.70;6.60;;;;;;;11.65;60.74;101026.14;104893;1257;64540;-69
2024/04/23 00:43:09;;;;;;;7.50;2.80;;;;;;;11.63;60.63;101023.62;104978;1258;69944;-69
2024/04/23 00:45:44;;;;;;;12.00;7.20;;;;;;;11.59;60.61;101023.36;104941;1260;64229;-71
2024/04/23 00:48:13;;;;;;;9.50;7.20;;;;;;;11.57;60.71;101023.17;105824;1257;61289;-70
2024/04/23 00:50:40;;;;;;;7.00;3.00;;;;;;;11.60;60.66;101023.65;105806;1257;61350;-70
2024/04/23 00:53:08;;;;;;;9.50;6.60;;;;;;;11.65;60.52;101025.20;105756;1257;65813;-71
2024/04/23 00:55:36;;;;;;;11.90;7.20;;;;;;;11.68;60.56;101024.81;105887;1258;61939;-70
2024/04/23 00:58:04;;;;;;;17.30;8.60;;;;;;;11.69;60.67;101028.10;105107;1259;63780;-70
2024/04/23 01:00:32;;;;;;;12.70;7.90;;;;;;;11.69;60.88;101030.00;106936;1261;61312;-72
2024/04/23 01:02:59;;;;;;;11.60;8.20;;;;;;;11.67;60.91;101027.86;108838;1258;60017;-73
2024/04/23 01:05:27;;;;;;;15.20;9.10;;;;;;;11.63;60.86;101027.98;108761;1256;65693;-72
2024/04/23 01:07:54;;;;;;;13.40;8.30;;;;;;;11.57;60.76;101031.77;108821;1257;60304;-72
2024/04/23 01:10:22;;;;;;;11.60;7.40;;;;;;;11.55;60.64;101030.35;108769;1261;64200;-71
2024/04/23 01:12:49;;;;;;;6.60;2.40;;;;;;;11.59;60.46;101029.38;107596;1259;61358;-70
2024/04/23 01:15:17;;;;;;;12.00;7.70;;;;;;;11.64;60.42;101030.92;105140;1260;61453;-69
2024/04/23 01:17:44;;;;;;;12.30;7.60;;;;;;;11.69;60.45;101031.79;104942;1261;65748;-71
2024/04/23 01:20:12;;;;;;;10.80;8.30;;;;;;;11.69;60.55;101032.63;105596;1257;61237;-69
2024/04/23 01:22:59;;;;;;;11.40;8.90;;;;;;;11.66;60.65;101031.99;105832;1259;62437;-70
2024/04/23 01:25:26;;;;;;;8.10;3.80;;;;;;;11.64;60.74;101029.83;106311;1257;61299;-69
2024/04/23 01:27:54;;;;;;;11.40;8.00;;;;;;;11.63;61.04;101029.61;105968;1255;61414;-70
2024/04/23 01:30:22;;;;;;;9.10;6.70;;;;;;;11.62;61.22;101030.76;106024;1255;65787;-71
2024/04/23 01:32:49;;;;;;;10.60;6.70;;;;;;;11.65;61.08;101029.07;105994;1254;61367;-71
2024/04/23 01:35:17;;;;;;;12.70;6.90;;;;;;;11.70;61.16;101032.61;106029;1260;64362;-70
2024/04/23 01:37:47;;;;;;;6.80;3.20;;;;;;;11.74;61.00;101033.91;105800;1256;61401;-70
2024/04/23 01:40:14;;;;;;;11.60;8.00;;;;;;;11.76;61.11;101034.11;106105;1254;61274;-71
2024/04/23 01:42:41;;;;;;;11.20;7.00;;;;;;;11.73;61.24;101033.40;106044;1256;64440;-71
2024/04/23 01:45:11;;;;;;;9.10;6.80;;;;;;;11.74;61.38;101037.61;106024;1260;61169;-71
2024/04/23 01:47:39;;;;;;;9.80;7.10;;;;;;;11.71;61.37;101039.37;106202;1256;65109;-72
2024/04/23 01:50:06;;;;;;;10.00;6.90;;;;;;;11.67;61.32;101038.98;106136;1261;61362;-71
2024/04/23 01:52:34;;;;;;;10.30;6.90;;;;;;;11.66;61.24;101035.32;106185;1256;61222;-70
2024/04/23 01:55:02;;;;;;;7.60;2.30;;;;;;;11.70;61.10;101034.52;106291;1254;65813;-71
2024/04/23 01:57:29;;;;;;;11.00;7.60;;;;;;;11.75;61.01;101033.98;106078;1261;61307;-70
2024/04/23 01:59:58;;;;;;;10.00;7.30;;;;;;;11.80;60.86;101041.50;106326;1255;64319;-71
2024/04/23 02:02:25;;;;;;;10.50;7.40;;;;;;;11.81;60.83;101042.68;106734;1256;61357;-70
2024/04/23 02:04:53;;;;;;;6.90;3.50;;;;;;;11.82;60.77;101044.73;106244;1256;61200;-69
2024/04/23 02:07:20;;;;;;;12.80;8.20;;;;;;;11.81;60.62;101044.28;105016;1260;65795;-69
2024/04/23 02:09:48;;;;;;;11.00;8.40;;;;;;;11.79;60.49;101046.17;108828;1254;60101;-71
2024/04/23 02:12:16;;;;;;;8.50;3.40;;;;;;;11.78;60.59;101046.81;105175;1254;65600;-70
2024/04/23 02:14:43;;;;;;;11.90;8.00;;;;;;;11.77;60.59;101049.84;105015;1255;61341;-70
2024/04/23 02:17:14;;;;;;;12.10;7.70;;;;;;;11.72;60.48;101051.98;104964;1259;61329;-69
2024/04/23 02:19:41;;;;;;;9.00;6.80;;;;;;;11.73;60.35;101058.74;109064;1255;64510;-72
2024/04/23 02:22:09;;;;;;;5.90;2.60;;;;;;;11.77;60.03;101063.21;108964;1254;60108;-67
2024/04/23 02:24:38;;;;;;;10.40;6.20;;;;;;;11.77;59.92;101062.18;107575;1256;63680;-67
2024/04/23 02:27:05;;;;;;;8.50;6.70;;;;;;;11.78;60.11;101062.58;105181;1258;61360;-68
2024/04/23 02:29:33;;;;;;;12.00;7.50;;;;;;;11.82;60.20;101066.02;105075;1256;61364;-67
2024/04/23 02:32:01;;;;;;;8.00;3.70;;;;;;;11.83;60.12;101069.10;104927;1253;64431;-67
2024/04/23 02:34:29;;;;;;;10.00;7.10;;;;;;;11.80;60.01;101074.04;108807;1256;60078;-67
2024/04/23 02:36:56;;;;;;;11.10;8.20;;;;;;;11.78;59.90;101078.94;106159;1254;63883;-67
2024/04/23 02:39:24;;;;;;;10.50;7.20;;;;;;;11.74;59.89;101080.44;105249;1260;61373;-67
2024/04/23 02:41:52;;;;;;;9.90;7.30;;;;;;;11.68;59.82;101081.23;105000;1254;61369;-65
2024/04/23 02:44:20;;;;;;;8.60;4.00;;;;;;;11.62;59.87;101082.94;105029;1260;66029;-70
2024/04/23 02:46:47;;;;;;;12.40;8.20;;;;;;;11.57;59.95;101083.27;105100;1255;62604;-70
2024/04/23 02:49:15;;;;;;;9.90;7.70;;;;;;;11.57;59.95;101082.55;105342;1254;64195;-69
2024/04/23 02:51:50;;;;;;;11.60;8.80;;;;;;;11.62;60.19;101086.45;106096;1256;61302;-68
2024/04/23 02:54:17;;;;;;;11.70;8.90;;;;;;;11.66;60.27;101088.27;107027;1254;61292;-71
2024/04/23 02:56:47;;;;;;;14.00;9.70;;;;;;;11.73;60.25;101092.69;106139;1254;65724;-70
2024/04/23 02:59:15;;;;;;;7.70;4.30;;;;;;;11.79;59.96;101095.20;106077;1254;61351;-66
2024/04/23 03:01:43;;;;;;;13.40;10.70;;;;;;;11.80;59.36;101093.70;106019;1255;71508;-68
2024/04/23 03:04:10;;;;;;;12.50;9.60;;;;;;;11.77;59.35;101097.11;105961;1258;61356;-66
2024/04/23 03:06:38;;;;;;;15.10;10.30;;;;;;;11.76;59.27;101098.27;105975;1256;61382;-68
2024/04/23 03:09:05;;;;;;;10.40;6.10;;;;;;;11.73;59.42;101096.68;105935;1256;64544;-67
2024/04/23 03:11:33;;;;;;;17.60;11.60;;;;;;;11.68;59.59;101096.35;106043;1255;62024;-66
2024/04/23 03:14:00;;;;;;;14.20;10.30;;;;;;;11.64;59.78;101096.86;106200;1261;63680;-68
2024/04/23 03:16:28;;;;;;;19.60;10.30;;;;;;;11.60;59.81;101097.81;106180;1260;61427;-67
2024/04/23 03:18:55;;;;;;;12.30;5.70;;;;;;;11.57;59.91;101092.77;106215;1255;61319;-67
2024/04/23 03:21:23;;;;;;;14.00;9.80;;;;;;;11.60;59.82;101094.48;106137;1260;64414;-67
2024/04/23 03:23:50;;;;;;;14.10;11.10;;;;;;;11.64;59.75;101096.10;106027;1259;61257;-66
2024/04/23 03:26:18;;;;;;;15.70;10.70;;;;;;;11.66;59.70;101098.64;105572;1256;62522;-67
2024/04/23 03:28:45;;;;;;;13.80;10.30;;;;;;;11.66;59.76;101096.34;106008;1261;61249;-66
2024/04/23 03:31:13;;;;;;;11.20;4.90;;;;;;;11.66;59.82;101101.22;106066;1254;61244;-65
2024/04/23 03:33:40;;;;;;;12.60;10.10;;;;;;;11.67;60.05;101105.58;106053;1259;65752;-66
2024/04/23 03:36:08;;;;;;;12.30;5.50;;;;;;;11.67;60.10;101109.41;106028;1256;62596;-67
2024/04/23 03:38:35;;;;;;;14.60;9.80;;;;;;;11.74;59.79;101112.64;105959;1256;62476;-66
2024/04/23 03:41:02;;;;;;;15.90;10.10;;;;;;;11.81;59.45;101115.82;106030;1261;61255;-66
2024/04/23 03:43:30;;;;;;;10.00;5.40;;;;;;;11.85;59.15;101115.88;105943;1259;61272;-68
2024/04/23 03:45:57;;;;;;;15.80;11.20;;;;;;;11.88;59.23;101115.28;105996;1256;64458;-66
2024/04/23 03:48:25;;;;;;;12.90;5.70;;;;;;;11.89;59.10;101122.59;106191;1256;61454;-67
2024/04/23 03:50:52;;;;;;;13.00;9.60;;;;;;;11.90;59.04;101125.33;107138;1256;63684;-66
2024/04/23 03:53:20;;;;;;;10.10;4.70;;;;;;;11.89;58.98;101125.02;106560;1259;61617;-65
2024/04/23 03:55:48;;;;;;;12.60;9.60;;;;;;;11.93;58.81;101126.37;106001;1259;61357;-66
2024/04/23 03:58:15;;;;;;;12.80;9.30;;;;;;;11.98;58.66;101126.73;105880;1256;64554;-66
2024/04/23 04:00:43;;;;;;;10.90;5.70;;;;;;;12.01;58.70;101126.87;105969;1256;62101;-68
2024/04/23 04:06:06;;;;;;;10.40;5.00;;;;;;;12.06;58.67;101137.38;106084;1256;61360;-63
2024/04/23 04:08:34;;;;;;;13.40;10.60;;;;;;;12.01;58.83;101138.57;105684;1258;61238;-55
2024/04/23 04:11:02;;;;;;;13.50;9.90;;;;;;;12.03;58.87;101138.86;106061;1256;65861;-60
2024/04/23 04:13:31;;;;;;;13.00;10.20;;;;;;;12.03;58.78;101139.52;105351;1261;61190;-59
2024/04/23 04:16:00;;;;;;;12.70;9.30;;;;;;;12.03;58.51;101145.13;105624;1257;63817;-61
2024/04/23 04:18:27;;;;;;;13.30;9.50;;;;;;;12.02;58.31;101145.80;105124;1264;61254;-61
2024/04/23 04:21:04;;;;;;;13.60;9.20;;;;;;;11.99;58.37;101145.28;105243;1259;61127;-57
2024/04/23 04:23:32;;;;;;;16.50;9.70;;;;;;;11.98;58.54;101146.58;105371;1256;64513;-62
2024/04/23 04:25:59;;;;;;;7.20;4.60;;;;;;;11.99;58.78;101145.44;105974;1256;61944;-60
2024/04/23 04:28:27;;;;;;;14.30;9.70;;;;;;;11.99;58.93;101148.29;106249;1261;64292;-60
2024/04/23 04:30:54;;;;;;;13.30;10.30;;;;;;;11.98;58.88;101154.51;105986;1257;61373;-60
2024/04/23 04:33:23;;;;;;;13.80;9.60;;;;;;;11.91;58.70;101155.88;105114;1261;61198;-65
2024/04/23 04:35:54;;;;;;;13.50;9.80;;;;;;;11.79;58.75;101164.33;107588;1257;68002;-69
2024/04/23 04:38:22;;;;;;;9.90;4.80;;;;;;;11.67;58.86;101171.81;105624;1259;62559;-71
2024/04/23 04:40:50;;;;;;;13.50;9.70;;;;;;;11.66;58.95;101170.13;105628;1256;63886;-68
2024/04/23 04:43:18;;;;;;;13.30;9.10;;;;;;;11.74;59.04;101168.86;104923;1257;61379;-65
2024/04/23 04:45:45;;;;;;;12.70;8.70;;;;;;;11.84;58.83;101169.92;105704;1256;61330;-64
2024/04/23 04:48:13;;;;;;;10.00;4.30;;;;;;;11.93;58.69;101173.16;106144;1264;77753;-61
2024/04/23 04:50:41;;;;;;;18.60;10.20;;;;;;;11.98;58.70;101175.61;106073;1256;62340;-59
2024/04/23 04:53:09;;;;;;;13.20;10.10;;;;;;;12.03;58.57;101178.41;105151;1259;65839;-59
2024/04/23 04:55:36;;;;;;;12.70;9.50;;;;;;;12.04;58.37;101181.14;104866;1259;61360;-62
2024/04/23 04:58:04;;;;;;;13.30;9.50;;;;;;;12.05;58.38;101183.20;108754;1256;59351;-56
2024/04/23 05:00:31;;;;;;;13.40;9.20;;;;;;;12.10;58.28;101181.08;108891;1257;67839;-56
2024/04/23 05:02:59;;;;;;;13.70;4.80;;;;;;;12.21;57.92;101180.24;108830;1258;62643;-58
2024/04/23 05:05:26;;;;;;;12.30;9.10;;;;;;;12.34;57.69;101177.50;108873;1259;62820;-57
2024/04/23 05:07:54;;;;;;;13.00;9.10;;;;;;;12.42;57.49;101170.73;108892;1258;59828;-63
2024/04/23 05:10:22;;;;;;;15.20;9.10;;;;;;;12.47;57.16;101171.26;106851;1256;61244;-61
2024/04/23 05:12:50;;;;;;;12.30;9.30;;;;;;;12.50;56.77;101169.61;106147;1262;66391;-61
2024/04/23 05:15:18;;;;;;;10.00;5.10;;;;;;;12.51;56.20;101169.05;105750;1264;62412;-63
2024/04/23 05:17:45;;;;;;;13.60;9.80;;;;;;;12.46;55.80;101165.70;104694;1264;65910;-61
2024/04/23 05:20:13;;;;;;;10.30;7.70;;;;;;;12.42;55.87;101159.17;104898;1261;61281;-59
2024/04/23 05:22:40;;;;;;;10.40;7.80;;;;;;;12.40;55.82;101154.88;104765;1256;61431;-58
2024/04/23 05:25:09;;;;;;;10.20;7.90;;;;;;;12.42;55.72;101151.94;104930;1261;68337;-60
2024/04/23 05:27:37;;;;;;;11.00;8.20;;;;;;;12.45;55.77;101162.13;104702;1256;63971;-57
2024/04/23 05:30:05;;;;;;;14.30;8.80;;;;;;;12.49;55.80;101170.42;108863;1258;63928;-59
2024/04/23 05:32:48;;;;;;;12.80;9.30;;;;;;;12.54;55.62;101177.80;108840;1257;59417;-57
2024/04/23 05:35:17;;;;;;;9.20;4.30;;;;;;;12.60;55.70;101184.20;108925;1256;58956;-56
2024/04/23 05:37:44;;;;;;;11.50;8.00;;;;;;;12.67;55.66;101190.20;108847;1259;66317;-58
2024/04/23 05:40:12;;;;;;;10.50;7.70;;;;;;;12.72;55.23;101186.25;106673;1256;61523;-57
2024/04/23 05:42:42;;;;;;;9.90;6.80;;;;;;;12.76;55.06;101188.08;104910;1261;64173;-57
2024/04/23 05:45:11;;;;;;;10.60;7.20;;;;;;;12.84;54.12;101188.88;105216;1261;61313;-59
2024/04/23 05:48:22;;;;;;;10.00;7.20;;;;;;;12.90;53.66;101185.81;105030;1256;61279;-57
2024/04/23 05:51:47;;;;;;;9.50;6.60;;;;;;;12.91;53.54;101191.48;105150;1256;65163;-58
2024/04/23 05:55:13;;;;;;;7.00;3.20;;;;;;;12.93;52.89;101193.81;104970;1256;63812;-58
2024/04/23 05:57:55;;;;;;;8.90;5.80;;;;;;;12.90;52.69;101191.98;105101;1261;73832;-60
2024/04/23 06:00:23;;;;;;;9.20;6.70;;;;;;;12.91;52.79;101195.05;105209;1259;61259;-59
2024/04/23 06:02:51;;;;;;;5.60;2.40;;;;;;;12.91;52.95;101192.74;105651;1263;61240;-57
2024/04/23 06:05:20;;;;;;;9.30;6.60;;;;;;;12.90;53.01;101189.13;105193;1256;64918;-58
2024/04/23 06:07:49;;;;;;;8.30;6.50;;;;;;;12.89;52.91;101188.01;106361;1256;72644;-73
2024/04/23 06:10:17;;;;;;;10.10;6.40;;;;;;;12.87;53.13;101186.39;105781;1259;72981;-63
2024/04/23 06:12:47;;;;;;;8.30;6.10;;;;;;;12.92;52.98;101186.90;106323;1256;61308;-63
2024/04/23 06:15:18;;;;;;;8.90;5.60;;;;;;;12.98;52.79;101189.40;106043;1263;61387;-76
2024/04/23 06:17:46;;;;;;;7.80;5.50;;;;;;;13.02;52.84;101186.08;106009;1256;64448;-74
2024/04/23 06:20:15;;;;;;;8.70;6.50;;;;;;;13.12;53.16;101184.45;105679;1256;72636;-66
2024/04/23 06:22:48;;;;;;;8.90;6.20;;;;;;;13.21;52.92;101183.61;105852;1259;64023;-67
2024/04/23 06:25:19;;;;;;;8.60;6.60;;;;;;;13.33;52.69;101185.26;106044;1257;61361;-67
2024/04/23 06:27:47;;;;;;;9.50;6.70;;;;;;;13.41;52.28;101182.59;105823;1266;61973;-67
2024/04/23 06:30:16;;;;;;;10.50;7.10;;;;;;;13.46;51.88;101182.16;106141;1256;64862;-66
2024/04/23 06:32:43;;;;;;;9.60;7.60;;;;;;;13.48;51.51;101184.09;105799;1256;61506;-66
2024/04/23 06:35:13;;;;;;;9.00;6.50;;;;;;;13.46;51.31;101186.55;106029;1260;62616;-65
2024/04/23 06:37:41;;;;;;;10.90;7.10;;;;;;;13.46;50.86;101190.41;105961;1257;61388;-65
2024/04/23 06:40:10;;;;;;;11.10;8.00;;;;;;;13.47;51.15;101189.46;105837;1256;61366;-56
2024/04/23 06:42:38;;;;;;;12.90;9.60;;;;;;;13.49;51.11;101190.73;106023;1261;64604;-60
2024/04/23 06:45:07;;;;;;;10.60;7.50;;;;;;;13.51;51.44;101193.06;104892;1256;61878;-61
2024/04/23 06:47:34;;;;;;;10.60;7.40;;;;;;;13.56;51.45;101193.86;105549;1256;62608;-58
2024/04/23 06:50:03;;;;;;;12.30;7.90;;;;;;;13.57;51.18;101197.35;104949;1258;61323;-60
2024/04/23 06:52:31;;;;;;;12.20;7.60;;;;;;;13.57;51.37;101199.99;105396;1260;61357;-58
2024/04/23 06:55:01;;;;;;;10.90;7.70;;;;;;;13.63;51.35;101197.79;105504;1256;64599;-60
2024/04/23 06:57:28;;;;;;;10.50;7.30;;;;;;;13.75;50.95;101198.74;107081;1261;61194;-57
2024/04/23 06:59:56;;;;;;;11.80;7.80;;;;;;;13.88;50.48;101204.16;104806;1262;64826;-57
2024/04/23 07:02:24;;;;;;;11.40;8.40;;;;;;;13.96;50.14;101206.73;105208;1261;61192;-69
2024/04/23 07:04:53;;;;;;;11.30;7.10;;;;;;;14.03;49.93;101208.25;106043;1259;61207;-66
2024/04/23 07:07:20;;;;;;;12.80;8.10;;;;;;;14.10;50.02;101207.83;105887;1259;67939;-65
2024/04/23 07:09:48;;;;;;;11.50;7.90;;;;;;;14.15;49.66;101203.21;106012;1261;72699;-64
2024/04/23 07:12:15;;;;;;;10.90;7.90;;;;;;;14.15;49.56;101207.34;106000;1257;66228;-66
2024/04/23 07:14:43;;;;;;;9.90;8.10;;;;;;;14.16;49.39;101205.45;105942;1257;63641;-63
2024/04/23 07:17:11;;;;;;;11.10;7.70;;;;;;;14.18;49.04;101204.98;106119;1261;61301;-68
2024/04/23 07:19:39;;;;;;;13.00;7.20;;;;;;;14.21;48.83;101206.41;106045;1256;64836;-68
2024/04/23 07:22:08;;;;;;;12.50;7.10;;;;;;;14.28;48.29;101207.30;105996;1256;72183;-68
2024/04/23 07:24:35;;;;;;;10.30;6.70;;;;;;;14.30;48.20;101205.54;106043;1262;66143;-67
2024/04/23 07:27:03;;;;;;;9.60;6.40;;;;;;;14.32;47.78;101205.59;106087;1261;61238;-66
2024/04/23 07:29:31;;;;;;;8.60;6.40;;;;;;;14.34;47.74;101206.97;106056;1262;61406;-66
2024/04/23 07:31:58;;;;;;;9.30;6.30;;;;;;;14.38;47.91;101205.42;105842;1263;64592;-66
2024/04/23 07:34:26;;;;;;;10.30;7.00;;;;;;;14.43;48.09;101204.30;106126;1260;64347;-65
2024/04/23 07:36:54;;;;;;;9.90;5.90;;;;;;;14.49;47.86;101203.98;105949;1262;64568;-66
2024/04/23 07:39:21;;;;;;;8.50;6.00;;;;;;;14.51;47.56;101202.05;105938;1257;61260;-61
2024/04/23 07:41:49;;;;;;;9.20;6.00;;;;;;;14.47;47.51;101199.73;107295;1256;61295;-63
2024/04/23 07:44:17;;;;;;;10.80;6.40;;;;;;;14.44;47.79;101195.73;104805;1263;66035;-69
2024/04/23 07:46:44;;;;;;;7.20;5.70;;;;;;;14.43;47.86;101195.30;105925;1263;71341;-65
2024/04/23 07:49:12;;;;;;;10.70;6.50;;;;;;;14.41;47.69;101188.41;106101;1259;63844;-67
2024/04/23 07:51:39;;;;;;;8.70;5.80;;;;;;;14.43;47.94;101186.26;105900;1261;60991;-62
2024/04/23 07:54:07;;;;;;;10.20;6.50;;;;;;;14.47;48.12;101189.48;106119;1261;62258;-64
2024/04/23 07:56:34;;;;;;;8.60;5.70;;;;;;;14.47;48.34;101185.92;106032;1258;66749;-65
2024/04/23 07:59:02;;;;;;;8.80;6.00;;;;;;;14.51;48.47;101188.77;105958;1261;72130;-69
2024/04/23 08:01:30;;;;;;;8.70;5.50;;;;;;;14.57;48.45;101186.38;105858;1257;260657;-70
2024/04/23 08:06:53;;;;;;;8.30;5.70;;;;;;;14.38;49.19;101190.04;103101;1295;600989;-67
2024/04/23 08:09:20;;;;;;;9.40;6.20;;;;;;;14.78;48.96;101186.55;105266;1266;60598;-66
2024/04/23 08:11:48;;;;;;;8.50;5.70;;;;;;;14.90;48.77;101189.64;105274;1271;59662;-67
2024/04/23 08:14:15;;;;;;;10.60;5.90;;;;;;;15.02;48.82;101186.65;105302;1267;73708;-66
2024/04/23 08:16:43;;;;;;;14.00;6.70;;;;;;;15.14;48.53;101182.05;105333;1270;61946;-67
2024/04/23 08:19:11;;;;;;;8.40;5.70;;;;;;;15.27;48.11;101180.60;105375;1266;183271;-67
2024/04/23 08:21:39;;;;;;;7.20;4.70;;;;;;;15.41;48.30;101173.75;105417;1257;62194;-57
2024/04/23 08:24:07;;;;;;;9.60;5.40;;;;;;;15.58;48.39;101173.98;107807;1260;57915;-62
2024/04/23 08:26:35;;;;;;;13.20;6.70;;;;;;;15.78;47.75;101172.27;104853;1262;75607;-58
2024/04/23 08:29:09;;;;;;;9.20;5.80;;;;;;;15.88;47.26;101168.55;104960;1262;60958;-63
2024/04/23 08:31:39;;;;;;;8.00;5.70;;;;;;;15.97;46.64;101163.44;105068;1260;62881;-59
2024/04/23 08:34:07;;;;;;;8.80;5.40;;;;;;;15.98;45.99;101164.81;104883;1257;60686;-53
2024/04/23 08:36:34;;;;;;;8.70;5.20;;;;;;;15.94;46.22;101166.59;104904;1257;61393;-66
2024/04/23 08:39:03;;;;;;;9.00;6.10;;;;;;;15.96;46.52;101167.09;105106;1256;64542;-62
2024/04/23 08:41:34;;;;;;;7.90;5.30;;;;;;;16.04;46.61;101169.00;105309;1259;72610;-59
2024/04/23 08:44:07;;;;;;;8.90;5.70;;;;;;;16.12;45.73;101167.94;105169;1258;74893;-59
2024/04/23 08:46:39;;;;;;;8.30;5.20;;;;;;;16.13;45.39;101165.73;105357;1257;60522;-56
2024/04/23 08:49:10;;;;;;;7.10;5.20;;;;;;;16.11;45.57;101161.27;105755;1256;60512;-61
2024/04/23 08:51:38;;;;;;;8.30;5.10;;;;;;;16.10;45.48;101159.21;105219;1257;65900;-67
2024/04/23 08:54:06;;;;;;;8.10;4.70;;;;;;;16.10;45.62;101158.02;105701;1258;73031;-66
2024/04/23 08:56:34;;;;;;;6.80;4.10;;;;;;;16.14;45.33;101157.68;105302;1262;74900;-61
2024/04/23 08:59:04;;;;;;;9.40;4.20;;;;;;;16.19;45.12;101157.23;105573;1253;62592;-64
2024/04/23 09:01:38;;;;;;;7.10;4.20;;;;;;;16.23;44.93;101157.76;105722;1258;60473;-60
2024/04/23 09:04:06;;;;;;;7.80;4.60;;;;;;;16.29;44.93;101159.67;106504;1258;65475;-65
2024/04/23 09:06:37;;;;;;;6.80;4.60;;;;;;;16.32;44.64;101154.73;106366;1257;62678;-65
2024/04/23 09:09:05;;;;;;;7.00;4.00;;;;;;;16.31;44.15;101151.52;106282;1253;74352;-65
2024/04/23 09:11:32;;;;;;;7.40;4.60;;;;;;;16.27;43.98;101149.06;106615;1251;61050;-65
2024/04/23 09:14:00;;;;;;;7.00;4.60;;;;;;;16.24;44.08;101152.22;106171;1254;62699;-68
2024/04/23 09:16:28;;;;;;;7.60;3.90;;;;;;;16.22;44.06;101152.72;106268;1257;76245;-65
2024/04/23 09:18:55;;;;;;;7.30;4.20;;;;;;;16.23;44.27;101152.75;106275;1257;71448;-65
2024/04/23 09:21:23;;;;;;;9.50;4.20;;;;;;;16.28;44.45;101153.95;106330;1253;71471;-67
2024/04/23 09:23:51;;;;;;;6.50;3.60;;;;;;;16.30;44.85;101151.80;106309;1256;62538;-67
2024/04/23 09:26:24;;;;;;;8.20;4.20;;;;;;;16.34;44.93;101154.79;106248;1254;60035;-65
2024/04/23 09:28:51;;;;;;;6.60;3.80;;;;;;;16.38;44.54;101152.99;106223;1251;74882;-73
2024/04/23 09:31:24;;;;;;;7.10;4.50;;;;;;;16.43;44.47;101147.42;106386;1253;63955;-73
2024/04/23 09:33:52;;;;;;;6.90;4.10;;;;;;;16.48;44.14;101146.95;106477;1251;71667;-73
2024/04/23 09:36:27;;;;;;;7.80;4.30;;;;;;;16.55;44.30;101146.98;106477;1251;62147;-73
2024/04/23 09:38:56;;;;;;;9.00;4.20;;;;;;;16.62;44.45;101150.44;108636;1252;58167;-72
2024/04/23 09:41:26;;;;;;;7.50;3.80;;;;;;;16.67;44.31;101151.92;106348;1253;74817;-72
2024/04/23 09:43:56;;;;;;;6.80;4.20;;;;;;;16.67;43.84;101148.21;106463;1251;61105;-61
2024/04/23 09:46:27;;;;;;;5.90;3.90;;;;;;;16.67;43.57;101148.83;105925;1251;74979;-58
2024/04/23 09:48:56;;;;;;;8.80;5.00;;;;;;;16.73;43.52;101156.08;106036;1251;59711;-73
2024/04/23 09:51:24;;;;;;;8.60;4.10;;;;;;;16.82;43.24;101159.77;106314;1251;60400;-74
2024/04/23 09:53:53;;;;;;;7.30;4.50;;;;;;;16.90;42.92;101158.83;106203;1258;65198;-67
2024/04/23 09:56:20;;;;;;;8.50;4.20;;;;;;;16.92;42.69;101157.59;106153;1251;63604;-59
2024/04/23 09:58:48;;;;;;;7.40;5.00;;;;;;;16.89;42.65;101161.36;107025;1251;64282;-61
2024/04/23 10:01:18;;;;;;;6.70;4.40;;;;;;;16.87;42.66;101164.45;106183;1253;60728;-62
2024/04/23 10:03:47;;;;;;;5.90;3.70;;;;;;;16.91;42.74;101162.44;109111;1251;58033;-71
2024/04/23 10:06:23;;;;;;;6.90;4.10;;;;;;;16.98;42.59;101158.64;107480;1256;67874;-69
2024/04/23 10:08:57;;;;;;;8.20;4.50;;;;;;;17.07;42.97;101162.19;106215;1252;63622;-70
2024/04/23 10:12:05;;;;;;;6.90;3.50;;;;;;;17.16;43.01;101166.99;106425;1251;62587;-69
2024/04/23 10:14:45;;;;;;;7.40;3.80;;;;;;;17.27;42.69;101165.90;107780;1253;62384;-71
2024/04/23 10:17:18;;;;;;;6.50;4.00;;;;;;;17.34;42.84;101161.16;106388;1253;60429;-72
2024/04/23 10:19:45;;;;;;;8.00;4.60;;;;;;;17.38;42.69;101166.66;106316;1255;73728;-72
2024/04/23 10:22:13;;;;;;;6.10;3.90;;;;;;;17.40;43.16;101169.27;106472;1253;72286;-72
2024/04/23 10:24:41;;;;;;;7.60;4.50;;;;;;;17.46;43.45;101174.02;106359;1251;66307;-73
2024/04/23 10:27:09;;;;;;;6.70;4.60;;;;;;;17.54;43.47;101175.61;106470;1251;60567;-71
2024/04/23 10:29:37;;;;;;;8.20;4.40;;;;;;;17.61;43.33;101173.67;106408;1255;60393;-69
2024/04/23 10:32:04;;;;;;;9.30;4.90;;;;;;;17.66;43.29;101172.68;106432;1256;67064;-72
2024/04/23 10:34:32;;;;;;;7.00;4.90;;;;;;;17.68;43.06;101168.61;106286;1251;73235;-69
2024/04/23 10:37:01;;;;;;;7.50;5.00;;;;;;;17.67;42.85;101169.60;106521;1255;71322;-69
2024/04/23 10:39:29;;;;;;;8.70;4.70;;;;;;;17.64;42.91;101167.48;106344;1253;61020;-68
2024/04/23 10:41:56;;;;;;;7.90;4.90;;;;;;;17.66;43.19;101166.04;106414;1251;60534;-68
2024/04/23 10:44:24;;;;;;;7.80;4.80;;;;;;;17.67;43.35;101167.44;106293;1251;65527;-70
2024/04/23 10:46:51;;;;;;;7.80;5.00;;;;;;;17.69;43.82;101168.83;106104;1253;64066;-69
2024/04/23 10:49:22;;;;;;;6.90;4.90;;;;;;;17.72;43.64;101168.55;106152;1251;66344;-69
2024/04/23 10:51:50;;;;;;;6.90;4.20;;;;;;;17.73;43.35;101165.94;106204;1251;60452;-70
2024/04/23 10:54:21;;;;;;;6.70;4.80;;;;;;;17.74;43.54;101163.87;106172;1251;62294;-55
2024/04/23 10:56:59;;;;;;;8.60;4.90;;;;;;;17.77;43.19;101166.47;105193;1251;76281;-72
2024/04/23 10:59:33;;;;;;;9.10;4.30;;;;;;;17.75;43.00;101160.46;106190;1251;72735;-74
2024/04/23 11:02:02;;;;;;;6.20;4.80;;;;;;;17.65;43.22;101163.86;106218;1253;75334;-72
2024/04/23 11:04:40;;;;;;;7.40;4.40;;;;;;;17.60;43.53;101165.55;105783;1253;60496;-59
2024/04/23 11:07:10;;;;;;;8.60;4.40;;;;;;;17.59;43.69;101164.09;105405;1257;60455;-58
2024/04/23 11:09:41;;;;;;;8.40;5.20;;;;;;;17.59;44.07;101166.00;108026;1252;67355;-58
2024/04/23 11:12:20;;;;;;;8.00;4.80;;;;;;;17.63;44.06;101166.91;105547;1251;62470;-60
2024/04/23 11:14:47;;;;;;;6.80;4.60;;;;;;;17.69;43.98;101164.73;107470;1252;64634;-71
2024/04/23 11:17:16;;;;;;;5.90;4.00;;;;;;;17.76;43.96;101160.64;106059;1256;60435;-58
2024/04/23 11:19:49;;;;;;;7.00;4.30;;;;;;;17.86;43.88;101165.21;105931;1251;60545;-70
2024/04/23 11:22:16;;;;;;;7.00;4.40;;;;;;;17.94;43.70;101160.15;106120;1251;63693;-70
2024/04/23 11:24:45;;;;;;;7.40;3.70;;;;;;;18.01;43.73;101148.41;106313;1251;71619;-67
2024/04/23 11:27:13;;;;;;;7.30;4.30;;;;;;;18.10;43.39;101146.72;106292;1253;64141;-66